Time;durP1;ratioP1;P1;durP2;ratioP2;P2;SDS_P1;SDS_P2;PMS_P1;PMS_P2;Temp;Humidity;BMP_temperature;BMP_pressure;BME280_temperature;BME280_humidity;BME280_pressure;Samples;Min_cycle;Max_cycle;Signal;HPM_P1;HPM_P2
2022/06/27 00:01:13;;;;;;;12.75;7.10;;;21.60;99.90;;;;;;5081533;28;20423;-54
2022/06/27 00:03:39;;;;;;;16.40;10.68;;;21.60;99.90;;;;;;5076214;28;20032;-55
2022/06/27 00:06:05;;;;;;;17.38;10.57;;;21.50;99.90;;;;;;5059315;28;20063;-55
2022/06/27 00:08:30;;;;;;;14.73;8.88;;;21.30;99.90;;;;;;5081090;28;20154;-54
2022/06/27 00:10:56;;;;;;;12.43;7.30;;;21.20;99.90;;;;;;5082528;28;20467;-55
2022/06/27 00:13:22;;;;;;;11.20;6.57;;;21.30;99.90;;;;;;5081389;28;20020;-55
2022/06/27 00:15:48;;;;;;;11.40;5.30;;;21.30;99.90;;;;;;5081540;28;20051;-55
2022/06/27 00:18:13;;;;;;;11.55;5.80;;;21.30;99.90;;;;;;5082600;28;20024;-54
2022/06/27 00:20:39;;;;;;;10.20;4.80;;;21.30;99.90;;;;;;5080670;28;20482;-54
2022/06/27 00:23:05;;;;;;;10.85;6.65;;;21.20;99.90;;;;;;5086790;28;20054;-55
2022/06/27 00:25:30;;;;;;;15.25;9.05;;;21.00;99.90;;;;;;5090443;28;20218;-55
2022/06/27 00:27:56;;;;;;;19.73;10.20;;;20.90;99.90;;;;;;5090126;28;20028;-54
2022/06/27 00:30:22;;;;;;;26.33;12.95;;;20.90;99.90;;;;;;5090158;28;20016;-55
2022/06/27 00:32:48;;;;;;;27.45;14.40;;;20.60;99.90;;;;;;5090237;28;20042;-55
2022/06/27 00:35:14;;;;;;;28.53;15.63;;;20.60;99.90;;;;;;5090150;28;20025;-55
2022/06/27 00:37:40;;;;;;;34.40;13.77;;;20.60;99.90;;;;;;5086837;28;20286;-55
2022/06/27 00:40:06;;;;;;;19.55;11.90;;;20.60;99.90;;;;;;5071715;28;20041;-55
2022/06/27 00:42:32;;;;;;;20.05;11.15;;;20.60;99.90;;;;;;5071789;28;20016;-55
2022/06/27 00:44:58;;;;;;;21.30;11.15;;;20.70;99.90;;;;;;5071670;28;20555;-55
2022/06/27 00:47:24;;;;;;;14.98;9.07;;;20.70;99.90;;;;;;5071682;28;20024;-55
2022/06/27 00:49:50;;;;;;;12.90;8.32;;;20.70;99.90;;;;;;5071323;28;20035;-55
2022/06/27 00:52:16;;;;;;;17.35;8.50;;;20.80;99.90;;;;;;5056123;28;20036;-55
2022/06/27 00:54:44;;;;;;;17.00;6.65;;;20.70;99.90;;;;;;5080356;28;20030;-55
2022/06/27 00:57:14;;;;;;;12.85;6.15;;;20.70;99.90;;;;;;5067928;28;20107;-55
2022/06/27 00:59:40;;;;;;;8.95;5.75;;;20.70;99.90;;;;;;5085373;28;20032;-55
2022/06/27 01:02:07;;;;;;;11.10;5.50;;;20.70;99.90;;;;;;5085942;28;20459;-55
2022/06/27 01:04:35;;;;;;;8.63;5.17;;;20.80;99.90;;;;;;5085921;28;20110;-54
2022/06/27 01:07:01;;;;;;;12.82;6.28;;;20.80;99.90;;;;;;5085319;28;20259;-55
2022/06/27 01:09:26;;;;;;;7.28;4.88;;;20.80;99.90;;;;;;5085561;28;20052;-54
2022/06/27 01:11:52;;;;;;;14.13;5.55;;;20.80;99.90;;;;;;5085732;28;20020;-55
2022/06/27 01:14:19;;;;;;;9.20;5.28;;;20.90;99.90;;;;;;5067055;28;20040;-55
2022/06/27 01:16:45;;;;;;;10.60;5.32;;;20.80;99.90;;;;;;5074668;28;20020;-55
2022/06/27 01:19:13;;;;;;;8.48;4.80;;;20.60;99.90;;;;;;5074975;28;20035;-56
2022/06/27 01:21:50;;;;;;;11.05;5.20;;;20.60;99.90;;;;;;5083969;28;20032;-54
2022/06/27 01:24:17;;;;;;;11.88;5.18;;;20.70;99.90;;;;;;5066408;28;20037;-55
2022/06/27 01:26:44;;;;;;;9.10;4.95;;;20.60;99.90;;;;;;5084262;28;20016;-55
2022/06/27 01:29:10;;;;;;;6.40;4.30;;;20.50;99.90;;;;;;5084436;28;20402;-55
2022/06/27 01:31:37;;;;;;;11.90;5.28;;;20.50;99.90;;;;;;5081851;28;20070;-54
2022/06/27 01:34:03;;;;;;;10.15;5.15;;;20.40;99.90;;;;;;5076182;28;20016;-55
2022/06/27 01:36:42;;;;;;;14.43;5.70;;;20.40;99.90;;;;;;5075971;28;20112;-55
2022/06/27 01:39:10;;;;;;;11.27;4.88;;;20.40;99.90;;;;;;5089071;28;20142;-55
2022/06/27 01:41:41;;;;;;;12.30;4.70;;;20.40;99.90;;;;;;5091562;28;20036;-55
2022/06/27 01:44:08;;;;;;;8.73;4.68;;;20.50;99.90;;;;;;5091289;28;20047;-55
2022/06/27 01:46:48;;;;;;;7.57;4.95;;;20.60;99.90;;;;;;5091119;28;20032;-55
2022/06/27 01:49:16;;;;;;;10.57;4.90;;;20.50;99.90;;;;;;5091324;28;20028;-55
2022/06/27 01:51:47;;;;;;;10.20;4.75;;;20.30;99.90;;;;;;5091602;28;20027;-55
2022/06/27 01:54:16;;;;;;;10.85;4.72;;;20.50;99.90;;;;;;5091376;28;20115;-55
2022/06/27 01:56:44;;;;;;;15.05;5.43;;;20.30;99.90;;;;;;5091164;28;20028;-56
2022/06/27 01:59:10;;;;;;;14.73;5.30;;;20.30;99.90;;;;;;5091109;28;20601;-55
2022/06/27 02:01:38;;;;;;;9.55;4.82;;;20.40;99.90;;;;;;5091483;28;20032;-56
2022/06/27 02:04:05;;;;;;;9.80;4.85;;;20.30;99.90;;;;;;5090793;28;20044;-55
2022/06/27 02:06:31;;;;;;;10.90;6.20;;;20.20;99.90;;;;;;5091139;28;20111;-55
2022/06/27 02:08:58;;;;;;;12.93;5.55;;;20.00;99.90;;;;;;5090391;28;20056;-55
2022/06/27 02:11:25;;;;;;;9.30;5.07;;;19.80;99.90;;;;;;5090860;28;20597;-55
2022/06/27 02:13:51;;;;;;;;;;;19.80;99.90;;;;;;5091367;28;20024;-57
2022/06/27 02:16:18;;;;;;;8.52;5.60;;;19.60;99.90;;;;;;5090734;28;19904;-55
2022/06/27 02:18:45;;;;;;;8.43;5.82;;;19.70;99.90;;;;;;5090931;28;20062;-55
2022/06/27 02:21:13;;;;;;;13.15;6.15;;;19.60;99.90;;;;;;5091079;28;20375;-55
2022/06/27 02:23:39;;;;;;;11.43;5.93;;;19.80;99.90;;;;;;5090808;28;20131;-55
2022/06/27 02:26:11;;;;;;;9.83;5.30;;;19.80;99.90;;;;;;5090868;28;20032;-55
2022/06/27 02:28:37;;;;;;;9.70;5.38;;;19.80;99.90;;;;;;5090693;28;20016;-55
2022/06/27 02:31:06;;;;;;;9.02;4.80;;;19.80;99.90;;;;;;5090908;28;20028;-55
2022/06/27 02:33:35;;;;;;;9.35;5.15;;;19.80;99.90;;;;;;5090378;28;20039;-55
2022/06/27 02:36:04;;;;;;;13.35;6.22;;;19.80;99.90;;;;;;5090578;28;20056;-55
2022/06/27 02:38:30;;;;;;;11.20;5.07;;;19.80;99.90;;;;;;5090926;28;20115;-54
2022/06/27 02:40:58;;;;;;;9.15;5.05;;;19.70;99.90;;;;;;5090539;28;20515;-55
2022/06/27 02:43:27;;;;;;;12.63;5.35;;;19.80;99.90;;;;;;5090520;28;20391;-55
2022/06/27 02:45:55;;;;;;;8.73;5.07;;;19.70;99.90;;;;;;5090695;28;20024;-55
2022/06/27 02:48:23;;;;;;;7.40;4.78;;;19.70;99.90;;;;;;5090817;28;20039;-55
2022/06/27 02:50:53;;;;;;;10.00;5.15;;;19.70;99.90;;;;;;5089877;28;20085;-55
2022/06/27 02:53:23;;;;;;;11.30;5.57;;;19.70;99.90;;;;;;5090350;28;20157;-54
2022/06/27 02:55:51;;;;;;;11.13;5.18;;;19.70;99.90;;;;;;5090383;28;20024;-55
2022/06/27 02:58:27;;;;;;;15.50;4.97;;;19.60;99.90;;;;;;5090703;28;20360;-57
2022/06/27 03:00:54;;;;;;;9.77;5.70;;;19.50;99.90;;;;;;5090610;28;20043;-56
2022/06/27 03:03:20;;;;;;;7.95;5.07;;;19.50;99.90;;;;;;5090294;28;20032;-54
2022/06/27 03:05:59;;;;;;;8.10;5.15;;;19.30;99.90;;;;;;5090254;28;20035;-54
2022/06/27 03:08:24;;;;;;;10.48;5.32;;;19.20;99.90;;;;;;5090184;28;20507;-55
2022/06/27 03:10:50;;;;;;;12.18;5.53;;;19.20;99.90;;;;;;5090557;28;20112;-54
2022/06/27 03:13:16;;;;;;;9.55;5.40;;;19.20;99.90;;;;;;5090370;28;20028;-54
2022/06/27 03:15:42;;;;;;;7.25;5.30;;;19.30;99.90;;;;;;5090319;28;20084;-54
2022/06/27 03:18:09;;;;;;;9.10;5.40;;;19.30;99.90;;;;;;5090572;28;20027;-56
2022/06/27 03:20:35;;;;;;;8.68;5.22;;;19.30;99.90;;;;;;5090488;28;20107;-57
2022/06/27 03:23:00;;;;;;;9.20;4.88;;;19.30;99.90;;;;;;5094036;28;20119;-54
2022/06/27 03:25:26;;;;;;;9.07;5.63;;;19.30;99.90;;;;;;5075888;28;20142;-55
2022/06/27 03:27:52;;;;;;;10.65;6.00;;;19.30;99.90;;;;;;5075682;28;20031;-55
2022/06/27 03:30:17;;;;;;;10.45;6.00;;;19.30;99.90;;;;;;5094155;28;20027;-54
2022/06/27 03:32:43;;;;;;;12.13;5.85;;;19.20;99.90;;;;;;5093848;28;20032;-54
2022/06/27 03:35:09;;;;;;;10.15;5.60;;;19.00;99.90;;;;;;5075868;28;20028;-54
2022/06/27 03:37:35;;;;;;;7.93;5.57;;;18.90;99.90;;;;;;5093729;28;20459;-54
2022/06/27 03:40:00;;;;;;;11.35;5.47;;;18.90;99.90;;;;;;5093820;28;20529;-54
2022/06/27 03:42:26;;;;;;;11.00;5.47;;;19.00;99.90;;;;;;5093618;28;20381;-57
2022/06/27 03:44:52;;;;;;;8.93;5.63;;;19.10;99.90;;;;;;5093537;28;20058;-55
2022/06/27 03:47:18;;;;;;;9.20;5.65;;;19.10;99.90;;;;;;5093908;28;20107;-54
2022/06/27 03:50:02;;;;;;;13.50;6.28;;;19.10;99.90;;;;;;5093610;28;20479;-55
2022/06/27 03:52:28;;;;;;;8.73;5.45;;;19.20;99.90;;;;;;5093441;28;20023;-56
2022/06/27 03:54:55;;;;;;;10.30;5.82;;;19.30;99.90;;;;;;5093140;28;20039;-56
2022/06/27 03:57:20;;;;;;;11.38;5.30;;;19.40;99.90;;;;;;5093689;28;20028;-55
2022/06/27 03:59:46;;;;;;;11.88;5.20;;;19.40;99.90;;;;;;5093432;28;20038;-56
2022/06/27 04:02:12;;;;;;;9.95;5.22;;;19.50;99.90;;;;;;5093257;28;20429;-56
2022/06/27 04:04:37;;;;;;;14.13;5.93;;;19.60;99.90;;;;;;5093577;28;20074;-56
2022/06/27 04:07:03;;;;;;;11.45;6.13;;;19.70;99.90;;;;;;5093421;28;20024;-56
2022/06/27 04:09:32;;;;;;;13.23;5.95;;;19.70;99.90;;;;;;5093103;28;20410;-56
2022/06/27 04:11:57;;;;;;;7.55;5.55;;;19.70;99.90;;;;;;5093344;28;20081;-56
2022/06/27 04:14:23;;;;;;;9.25;5.35;;;19.70;99.90;;;;;;5093281;28;20031;-56
2022/06/27 04:16:51;;;;;;;13.52;5.82;;;19.80;99.90;;;;;;5093101;28;20052;-56
2022/06/27 04:19:17;;;;;;;10.95;5.50;;;19.90;99.90;;;;;;5093148;28;20027;-56
2022/06/27 04:21:44;;;;;;;9.65;5.40;;;20.00;99.90;;;;;;5092934;28;20020;-56
2022/06/27 04:24:10;;;;;;;8.95;5.88;;;20.10;99.90;;;;;;5093150;28;20040;-56
2022/06/27 04:26:36;;;;;;;10.52;5.43;;;20.20;99.90;;;;;;5092945;28;20559;-56
2022/06/27 04:29:02;;;;;;;13.30;6.03;;;20.20;99.90;;;;;;5092857;28;20020;-56
2022/06/27 04:31:27;;;;;;;10.40;6.05;;;20.20;99.90;;;;;;5092673;28;20563;-57
2022/06/27 04:33:53;;;;;;;12.55;6.63;;;20.30;99.90;;;;;;5092393;28;20030;-52
2022/06/27 04:36:19;;;;;;;8.50;6.07;;;20.40;99.90;;;;;;5092448;28;20066;-53
2022/06/27 04:38:44;;;;;;;13.25;7.00;;;20.50;99.90;;;;;;5092478;28;20053;-53
2022/06/27 04:41:10;;;;;;;12.02;7.57;;;20.60;99.90;;;;;;5092657;28;20027;-52
2022/06/27 04:43:36;;;;;;;11.63;6.60;;;20.60;99.90;;;;;;5092444;28;20094;-51
2022/06/27 04:46:03;;;;;;;10.98;7.13;;;20.70;99.90;;;;;;5092708;28;20532;-53
2022/06/27 04:48:35;;;;;;;11.23;7.45;;;20.70;99.90;;;;;;5092607;28;20081;-53
2022/06/27 04:51:01;;;;;;;10.15;6.85;;;20.90;99.90;;;;;;5074140;28;20028;-51
2022/06/27 04:53:27;;;;;;;11.60;6.80;;;20.90;99.90;;;;;;5091868;28;20043;-52
2022/06/27 04:55:54;;;;;;;15.80;7.53;;;21.00;99.90;;;;;;5091415;28;20020;-53
2022/06/27 04:58:20;;;;;;;11.85;8.02;;;21.10;99.90;;;;;;5092164;28;20038;-51
2022/06/27 05:00:46;;;;;;;12.15;7.18;;;21.20;99.90;;;;;;5092312;28;20028;-52
2022/06/27 05:03:12;;;;;;;15.68;8.32;;;21.30;99.90;;;;;;5092197;28;20051;-51
2022/06/27 05:05:38;;;;;;;15.35;7.95;;;21.40;99.90;;;;;;5072849;28;20572;-52
2022/06/27 05:08:05;;;;;;;14.47;8.27;;;21.40;99.90;;;;;;5090873;28;20056;-52
2022/06/27 05:10:30;;;;;;;17.13;6.83;;;21.40;99.90;;;;;;5091799;28;20438;-52
2022/06/27 05:12:56;;;;;;;11.10;6.60;;;21.50;99.90;;;;;;5091705;28;20035;-52
2022/06/27 05:15:22;;;;;;;10.45;6.25;;;21.50;99.90;;;;;;5073495;28;20044;-53
2022/06/27 05:17:48;;;;;;;12.65;6.43;;;21.60;99.90;;;;;;5073831;28;20032;-52
2022/06/27 05:20:13;;;;;;;15.00;6.97;;;21.60;99.90;;;;;;5092329;28;20629;-52
2022/06/27 05:22:39;;;;;;;8.70;6.47;;;21.70;99.90;;;;;;5091807;28;20027;-52
2022/06/27 05:25:07;;;;;;;15.90;6.88;;;21.80;99.90;;;;;;5091710;28;20471;-52
2022/06/27 05:27:35;;;;;;;11.65;5.78;;;21.90;99.90;;;;;;5091710;28;20036;-52
2022/06/27 05:30:01;;;;;;;11.88;5.82;;;22.00;99.90;;;;;;5091589;28;20028;-53
2022/06/27 05:32:27;;;;;;;12.70;5.95;;;22.00;99.90;;;;;;5091639;28;20395;-53
2022/06/27 05:34:53;;;;;;;8.07;4.57;;;22.00;99.90;;;;;;5091560;28;20024;-52
2022/06/27 05:37:19;;;;;;;13.77;5.95;;;22.10;99.90;;;;;;5091196;28;20031;-52
2022/06/27 05:39:46;;;;;;;19.13;6.53;;;22.20;99.90;;;;;;5091570;28;20031;-52
2022/06/27 05:42:11;;;;;;;15.85;5.35;;;22.30;99.90;;;;;;5091137;28;20075;-55
2022/06/27 05:44:37;;;;;;;13.55;6.40;;;22.40;99.90;;;;;;5090569;28;20059;-56
2022/06/27 05:47:03;;;;;;;15.57;6.35;;;22.50;99.90;;;;;;5091421;28;20031;-56
2022/06/27 05:49:29;;;;;;;17.52;6.15;;;22.60;99.90;;;;;;5090928;28;20028;-56
2022/06/27 05:51:57;;;;;;;13.63;6.53;;;22.70;99.90;;;;;;5091060;28;20024;-56
2022/06/27 05:54:24;;;;;;;13.13;6.38;;;22.80;99.90;;;;;;5091170;28;20024;-56
2022/06/27 05:56:50;;;;;;;13.77;7.13;;;22.80;99.90;;;;;;5090990;28;20518;-56
2022/06/27 05:59:16;;;;;;;17.40;6.30;;;22.90;99.90;;;;;;5091127;28;20400;-55
2022/06/27 06:01:43;;;;;;;11.57;6.22;;;23.00;99.90;;;;;;5091357;28;20494;-55
2022/06/27 06:04:09;;;;;;;10.55;6.18;;;23.10;99.90;;;;;;5090957;28;20518;-56
2022/06/27 06:06:36;;;;;;;13.38;5.10;;;23.10;99.90;;;;;;5091101;28;20119;-56
2022/06/27 06:09:03;;;;;;;11.88;5.95;;;23.20;99.90;;;;;;5090775;28;20075;-56
2022/06/27 06:11:30;;;;;;;12.82;6.50;;;23.30;99.90;;;;;;5091075;28;20031;-57
2022/06/27 06:13:56;;;;;;;10.63;5.93;;;23.30;99.90;;;;;;5090860;28;20394;-57
2022/06/27 06:16:22;;;;;;;11.27;5.78;;;23.40;99.90;;;;;;5089186;28;20054;-57
2022/06/27 06:18:52;;;;;;;15.35;6.85;;;23.50;99.90;;;;;;5089187;28;20655;-57
2022/06/27 06:21:21;;;;;;;13.45;8.10;;;23.60;99.90;;;;;;5089388;28;20028;-57
2022/06/27 06:23:49;;;;;;;14.38;7.65;;;23.80;99.90;;;;;;5089273;28;20036;-57
2022/06/27 06:26:16;;;;;;;13.02;6.32;;;23.90;99.90;;;;;;5090007;28;20543;-57
2022/06/27 06:28:44;;;;;;;;;;;23.90;99.90;;;;;;5090656;28;20035;-57
2022/06/27 06:31:10;;;;;;;;;;;24.00;99.90;;;;;;5091049;28;19926;-57
2022/06/27 06:33:36;;;;;;;8.57;5.60;;;24.10;99.90;;;;;;5090706;28;19912;-57
2022/06/27 06:36:02;;;;;;;10.50;6.00;;;24.20;99.90;;;;;;5090325;28;20024;-57
2022/06/27 06:38:29;;;;;;;15.98;7.30;;;24.30;99.90;;;;;;5090400;28;20103;-57
2022/06/27 06:40:55;;;;;;;14.73;6.05;;;24.40;99.90;;;;;;5090694;28;20016;-57
2022/06/27 06:43:21;;;;;;;16.30;6.63;;;24.60;99.90;;;;;;5090272;28;20185;-57
2022/06/27 06:45:46;;;;;;;25.80;6.90;;;24.60;99.90;;;;;;5090499;28;20024;-57
2022/06/27 06:48:14;;;;;;;18.48;6.70;;;24.70;99.90;;;;;;5090419;28;20043;-58
2022/06/27 06:50:40;;;;;;;;;;;24.80;99.90;;;;;;5090889;28;20471;-58
2022/06/27 06:53:06;;;;;;;13.63;7.55;;;24.90;99.90;;;;;;5090217;28;19904;-58
2022/06/27 06:55:35;;;;;;;15.00;7.35;;;25.00;99.90;;;;;;5092202;28;20024;-57
2022/06/27 06:58:00;;;;;;;11.85;6.75;;;25.00;99.90;;;;;;5094562;28;20027;-57
2022/06/27 07:00:27;;;;;;;11.35;6.75;;;25.00;99.90;;;;;;5094703;28;20032;-57
2022/06/27 07:02:53;;;;;;;11.85;6.50;;;25.10;99.90;;;;;;5094431;28;20034;-57
2022/06/27 07:05:20;;;;;;;10.65;7.20;;;25.20;99.90;;;;;;5094449;28;20036;-57
2022/06/27 07:07:50;;;;;;;18.52;6.78;;;25.20;99.90;;;;;;5094419;28;20048;-58
2022/06/27 07:10:17;;;;;;;15.32;6.63;;;25.20;99.90;;;;;;5094631;28;20036;-57
2022/06/27 07:12:43;;;;;;;15.27;6.70;;;25.30;99.90;;;;;;5094293;28;20047;-57
2022/06/27 07:15:09;;;;;;;12.55;6.53;;;25.40;99.90;;;;;;5094089;28;20470;-57
2022/06/27 07:17:47;;;;;;;11.70;6.97;;;25.50;99.90;;;;;;5094492;28;20055;-58
2022/06/27 07:20:19;;;;;;;12.80;7.30;;;25.70;99.90;;;;;;5094051;28;20045;-57
2022/06/27 07:22:45;;;;;;;16.73;6.43;;;25.80;99.90;;;;;;5094094;28;20484;-57
2022/06/27 07:25:11;;;;;;;9.93;6.82;;;25.80;99.90;;;;;;5094117;28;20173;-57
2022/06/27 07:27:40;;;;;;;13.95;6.05;;;26.00;99.90;;;;;;5093986;28;20028;-57
2022/06/27 07:30:09;;;;;;;8.45;5.90;;;26.10;99.90;;;;;;5094022;28;20040;-57
2022/06/27 07:32:39;;;;;;;11.63;6.32;;;26.10;99.90;;;;;;5093802;28;20024;-57
2022/06/27 07:35:12;;;;;;;9.75;5.93;;;26.20;99.90;;;;;;5094096;28;20024;-57
2022/06/27 07:37:48;;;;;;;15.15;6.15;;;26.10;99.90;;;;;;5093804;28;20468;-58
2022/06/27 07:40:18;;;;;;;12.93;6.88;;;26.30;99.90;;;;;;5093782;28;20471;-57
2022/06/27 07:42:44;;;;;;;15.57;6.70;;;26.40;99.90;;;;;;5085037;28;20369;-57
2022/06/27 07:45:12;;;;;;;12.63;6.70;;;26.50;99.90;;;;;;5078046;28;20140;-57
2022/06/27 07:47:38;;;;;;;20.02;6.43;;;26.50;99.90;;;;;;5083093;28;20016;-57
2022/06/27 07:50:04;;;;;;;13.32;6.97;;;26.70;99.90;;;;;;5081953;28;20032;-57
2022/06/27 07:53:11;;;;;;;11.88;6.32;;;26.60;99.90;;;;;;5081047;28;20052;-57
2022/06/27 07:55:18;;;;;;;8.75;6.05;;;26.50;99.90;;;;;;5080921;28;20120;-58
2022/06/27 07:57:47;;;;;;;17.75;6.95;;;26.70;99.90;;;;;;5083965;28;20036;-57
2022/06/27 08:00:14;;;;;;;12.85;6.07;;;26.70;99.90;;;;;;5082688;28;20104;-57
2022/06/27 08:02:39;;;;;;;;;;;26.70;99.90;;;;;;5082106;28;20040;-58
2022/06/27 08:05:05;;;;;;;14.77;6.03;;;26.80;98.00;;;;;;5083748;28;19977;-57
2022/06/27 08:07:31;;;;;;;9.27;5.97;;;26.80;97.40;;;;;;5081390;28;20021;-58
2022/06/27 08:09:57;;;;;;;9.35;6.05;;;26.90;97.40;;;;;;5082042;28;20449;-58
2022/06/27 08:12:23;;;;;;;10.63;6.50;;;26.90;97.90;;;;;;5083866;28;20026;-58
2022/06/27 08:14:49;;;;;;;10.90;5.97;;;26.80;97.10;;;;;;5078442;28;20063;-58
2022/06/27 08:17:15;;;;;;;12.13;5.60;;;26.80;96.60;;;;;;5080558;28;20020;-57
2022/06/27 08:19:40;;;;;;;10.27;5.82;;;26.90;98.10;;;;;;5082000;28;20490;-58
2022/06/27 08:22:06;;;;;;;9.57;6.10;;;27.00;95.70;;;;;;5082980;28;20063;-58
2022/06/27 08:24:32;;;;;;;10.80;6.22;;;27.00;95.40;;;;;;5080279;28;20032;-59
2022/06/27 08:26:59;;;;;;;9.80;5.50;;;27.10;96.40;;;;;;5080705;28;20024;-58
2022/06/27 08:29:27;;;;;;;13.88;5.50;;;27.10;93.40;;;;;;5081922;28;20103;-58
2022/06/27 08:31:53;;;;;;;10.70;4.78;;;27.20;93.50;;;;;;5081946;28;20031;-58
2022/06/27 08:34:21;;;;;;;10.40;5.13;;;27.30;93.80;;;;;;5082604;28;20025;-58
2022/06/27 08:36:46;;;;;;;9.27;4.72;;;27.40;91.80;;;;;;5080637;28;20039;-58
2022/06/27 08:39:16;;;;;;;11.18;5.05;;;27.40;93.80;;;;;;5080825;28;20024;-57
2022/06/27 08:41:44;;;;;;;8.63;5.43;;;27.80;94.10;;;;;;5054838;28;20033;-56
2022/06/27 08:44:11;;;;;;;286.08;29.08;;;27.80;93.50;;;;;;5072333;28;20314;-57
2022/06/27 08:46:37;;;;;;;95.75;11.60;;;27.90;92.90;;;;;;5054263;28;20024;-56
2022/06/27 08:49:04;;;;;;;9.35;5.18;;;28.10;92.50;;;;;;5072202;28;20380;-57
2022/06/27 08:51:31;;;;;;;11.13;3.72;;;28.10;92.10;;;;;;5071873;28;20020;-56
2022/06/27 08:53:57;;;;;;;10.02;4.80;;;28.20;86.70;;;;;;5082799;28;20080;-57
2022/06/27 08:56:24;;;;;;;7.80;4.07;;;28.10;84.90;;;;;;5080505;28;20435;-55
2022/06/27 08:58:51;;;;;;;13.07;4.05;;;28.00;89.10;;;;;;5076767;28;20029;-56
2022/06/27 09:01:22;;;;;;;6.80;3.85;;;27.90;84.40;;;;;;5071996;28;20029;-57
2022/06/27 09:04:09;;;;;;;8.93;3.83;;;28.00;84.80;;;;;;5071644;28;20591;-57
2022/06/27 09:06:44;;;;;;;10.80;3.53;;;28.10;86.10;;;;;;5072028;28;20029;-56
2022/06/27 09:09:12;;;;;;;7.30;4.20;;;28.20;80.20;;;;;;5071254;28;20052;-56
2022/06/27 09:11:46;;;;;;;7.40;4.13;;;28.20;81.70;;;;;;5081191;28;20074;-56
2022/06/27 09:14:34;;;;;;;9.43;4.03;;;28.30;83.30;;;;;;5080105;28;20658;-56
2022/06/27 09:17:04;;;;;;;6.35;4.15;;;28.30;82.70;;;;;;5081232;28;20495;-56
2022/06/27 09:19:56;;;;;;;5.22;3.50;;;28.30;81.00;;;;;;5079624;28;20027;-57
2022/06/27 09:22:28;;;;;;;6.05;3.90;;;28.30;79.80;;;;;;5078548;28;20392;-55
2022/06/27 09:25:04;;;;;;;9.27;4.10;;;28.50;85.10;;;;;;5070898;28;20499;-56
2022/06/27 09:27:37;;;;;;;8.43;3.63;;;28.70;81.80;;;;;;5088820;28;20090;-56
2022/06/27 09:30:24;;;;;;;5.30;3.78;;;29.00;79.30;;;;;;5088148;28;20170;-57
2022/06/27 09:32:53;;;;;;;11.82;3.40;;;29.00;76.60;;;;;;5085065;28;20381;-55
2022/06/27 09:35:33;;;;;;;4.18;2.70;;;29.10;75.80;;;;;;5079061;28;20013;-55
2022/06/27 09:38:02;;;;;;;7.93;3.20;;;29.20;79.10;;;;;;5083286;28;20054;-55
2022/06/27 09:40:30;;;;;;;9.13;4.03;;;29.50;72.70;;;;;;5091117;28;20417;-56
2022/06/27 09:42:57;;;;;;;6.95;2.90;;;29.60;74.70;;;;;;5066368;28;20032;-55
2022/06/27 09:45:25;;;;;;;7.63;3.33;;;29.50;70.40;;;;;;5080662;28;20542;-55
2022/06/27 09:48:01;;;;;;;6.28;2.97;;;29.60;69.70;;;;;;5079616;28;20498;-55
2022/06/27 09:50:29;;;;;;;6.13;3.38;;;30.30;72.20;;;;;;5091156;28;20044;-54
2022/06/27 09:52:56;;;;;;;12.30;3.58;;;30.70;69.60;;;;;;5091035;28;20028;-54
2022/06/27 09:55:23;;;;;;;;;;;30.40;72.30;;;;;;5079077;28;20513;-54
2022/06/27 09:57:50;;;;;;;9.02;4.07;;;30.40;72.50;;;;;;5080514;28;19908;-53
2022/06/27 10:00:18;;;;;;;4.70;3.53;;;30.50;69.20;;;;;;5078232;28;20024;-55
2022/06/27 10:02:46;;;;;;;8.35;3.72;;;30.80;68.90;;;;;;5080001;28;20036;-54
2022/06/27 10:05:14;;;;;;;10.95;4.05;;;31.20;68.30;;;;;;5079166;28;20040;-54
2022/06/27 10:07:43;;;;;;;8.00;3.90;;;30.90;68.60;;;;;;5079120;28;20379;-54
2022/06/27 10:10:09;;;;;;;4.95;3.40;;;31.00;69.80;;;;;;5076176;28;20045;-54
2022/06/27 10:12:36;;;;;;;7.05;3.47;;;30.90;68.00;;;;;;5075569;28;20119;-55
2022/06/27 10:15:10;;;;;;;10.35;3.60;;;30.70;65.80;;;;;;5083167;28;20417;-53
2022/06/27 10:17:41;;;;;;;6.15;3.42;;;30.60;65.90;;;;;;5082975;28;20043;-54
2022/06/27 10:20:29;;;;;;;4.63;3.42;;;30.60;65.90;;;;;;5082567;28;20082;-54
2022/06/27 10:23:31;;;;;;;4.40;3.15;;;30.60;65.20;;;;;;5073771;28;20404;-54
2022/06/27 10:25:57;;;;;;;6.47;3.17;;;30.40;64.30;;;;;;5073820;28;20033;-54
2022/06/27 10:28:24;;;;;;;6.47;3.58;;;30.10;65.20;;;;;;5075646;28;20031;-54
2022/06/27 10:31:00;;;;;;;7.05;3.00;;;30.50;63.60;;;;;;5079607;28;20027;-55
2022/06/27 10:33:25;;;;;;;9.18;3.42;;;30.80;65.40;;;;;;5079958;28;20498;-54
2022/06/27 10:35:57;;;;;;;7.32;3.58;;;30.90;65.80;;;;;;5087264;28;20031;-55
2022/06/27 10:38:48;;;;;;;5.05;3.10;;;31.10;63.90;;;;;;5071349;28;20021;-55
2022/06/27 10:41:19;;;;;;;5.50;3.03;;;31.00;63.00;;;;;;5078967;28;20078;-54
2022/06/27 10:43:47;;;;;;;13.05;3.83;;;30.70;61.60;;;;;;5079700;28;20112;-54
2022/06/27 10:46:13;;;;;;;6.05;3.00;;;30.60;60.50;;;;;;5078901;28;20039;-54
2022/06/27 10:48:41;;;;;;;5.35;3.25;;;30.60;61.80;;;;;;5081119;28;20471;-54
2022/06/27 10:51:29;;;;;;;7.68;3.63;;;30.60;59.90;;;;;;5079793;28;20021;-55
2022/06/27 10:54:04;;;;;;;10.02;4.22;;;30.60;61.00;;;;;;5080949;28;20028;-55
2022/06/27 10:56:34;;;;;;;5.38;2.88;;;31.20;63.10;;;;;;5079991;28;20025;-55
2022/06/27 10:59:20;;;;;;;7.25;3.83;;;31.30;62.20;;;;;;5075343;28;20038;-55
2022/06/27 11:01:57;;;;;;;6.53;3.70;;;31.20;61.20;;;;;;5028828;28;20037;-53
2022/06/27 11:04:27;;;;;;;6.07;3.40;;;31.50;61.70;;;;;;5074775;28;20507;-53
2022/06/27 11:06:57;;;;;;;5.78;2.65;;;31.80;62.70;;;;;;5078503;28;20033;-53
2022/06/27 11:09:55;;;;;;;6.63;3.53;;;32.20;60.20;;;;;;5079751;28;20048;-52
2022/06/27 11:12:26;;;;;;;7.97;2.88;;;32.50;59.60;;;;;;5029128;28;20139;-52
2022/06/27 11:14:58;;;;;;;165.48;146.50;;;32.60;58.00;;;;;;5078903;28;20043;-54
2022/06/27 11:17:32;;;;;;;22.50;13.98;;;32.00;57.20;;;;;;5088869;28;20047;-54
2022/06/27 11:20:28;;;;;;;7.35;4.00;;;32.50;59.80;;;;;;5089383;28;20024;-54
2022/06/27 11:23:01;;;;;;;6.88;2.30;;;32.90;59.10;;;;;;5078355;28;20127;-54
2022/06/27 11:25:29;;;;;;;10.43;2.60;;;32.40;54.80;;;;;;5078751;28;20033;-53
2022/06/27 11:33:31;;;;;;;5.90;2.63;;;32.20;55.40;;;;;;5077703;28;20427;-53
2022/06/27 11:35:58;;;;;;;9.85;3.00;;;32.10;58.50;;;;;;5078452;28;20462;-54
2022/06/27 11:38:56;;;;;;;15.45;3.70;;;32.10;55.90;;;;;;5078927;28;20028;-53
2022/06/27 11:41:27;;;;;;;5.05;2.83;;;32.50;56.90;;;;;;5046374;28;20039;-52
2022/06/27 11:44:07;;;;;;;7.88;3.47;;;32.80;58.00;;;;;;5083956;28;20044;-54
2022/06/27 11:46:45;;;;;;;5.82;2.47;;;33.10;55.20;;;;;;5082886;28;20411;-51
2022/06/27 11:49:14;;;;;;;5.45;2.88;;;33.30;56.60;;;;;;5093474;28;20028;-56
2022/06/27 11:51:48;;;;;;;7.03;2.92;;;33.70;53.80;;;;;;5082963;28;20099;-54
2022/06/27 11:54:16;;;;;;;3.40;2.50;;;33.80;54.30;;;;;;5087306;28;20091;-53
2022/06/27 11:56:45;;;;;;;6.97;2.60;;;33.70;53.40;;;;;;5093274;28;20089;-54
2022/06/27 11:59:13;;;;;;;5.32;3.28;;;33.40;55.00;;;;;;5093314;28;20028;-53
2022/06/27 12:02:01;;;;;;;5.65;2.47;;;33.30;54.00;;;;;;5093132;28;20035;-56
2022/06/27 12:26:32;;;;;;;5.30;3.05;;;34.30;51.00;;;;;;5114119;22;20048;-91
2022/06/27 12:29:03;;;;;;;7.78;2.53;;;34.00;51.00;;;;;;5107333;28;20032;-92
2022/06/27 12:31:29;;;;;;;5.45;2.53;;;34.30;54.20;;;;;;5102782;28;20118;-93
2022/06/27 12:33:58;;;;;;;6.53;2.80;;;34.50;49.70;;;;;;5104245;28;20130;-93
2022/06/27 12:36:33;;;;;;;7.30;3.40;;;34.70;50.90;;;;;;5103503;28;20020;-92
2022/06/27 12:39:13;;;;;;;4.95;2.28;;;34.40;47.40;;;;;;5101798;28;20125;-92
2022/06/27 12:41:39;;;;;;;8.57;2.40;;;34.50;48.80;;;;;;5100775;28;20060;-92
2022/06/27 12:44:08;;;;;;;4.77;2.77;;;34.60;48.30;;;;;;5094528;28;20028;-90
2022/06/27 12:46:37;;;;;;;4.88;2.95;;;34.50;48.60;;;;;;5095914;28;20020;-90
2022/06/27 12:49:12;;;;;;;3.95;2.40;;;34.10;47.30;;;;;;5095214;28;20081;-94
2022/06/27 12:52:06;;;;;;;;;;;;;;;;;;;;;
2022/06/27 12:54:38;;;;;;;5.45;2.55;;;33.90;48.00;;;;;;5105858;28;20096;-90
2022/06/27 12:57:16;;;;;;;6.68;2.15;;;33.90;48.10;;;;;;5103727;28;20028;-92
2022/06/27 13:07:57;;;;;;;;;;;;;;;;;;;;;
2022/06/27 13:10:52;;;;;;;5.25;3.28;;;33.60;50.00;;;;;;4896669;29;20058;-89
2022/06/27 13:13:24;;;;;;;4.82;2.92;;;33.90;49.30;;;;;;4899107;29;20523;-88
2022/06/27 13:15:50;;;;;;;5.10;2.70;;;33.40;48.80;;;;;;4983688;28;20156;-88
2022/06/27 13:18:23;;;;;;;5.35;2.97;;;33.60;51.10;;;;;;5045859;28;20063;-90
2022/06/27 13:20:49;;;;;;;10.60;7.72;;;33.80;51.10;;;;;;5105999;28;20471;-89
2022/06/27 13:23:15;;;;;;;4.53;3.40;;;33.80;50.70;;;;;;5111996;28;20043;-88
2022/06/27 13:25:41;;;;;;;3.80;2.80;;;33.80;49.20;;;;;;5112551;28;20101;-88
2022/06/27 13:28:07;;;;;;;7.37;2.80;;;33.80;50.30;;;;;;5110433;28;20483;-90
2022/06/27 13:30:43;;;;;;;6.00;3.00;;;33.90;50.80;;;;;;5109653;28;20016;-87